Time;durP1;ratioP1;P1;durP2;ratioP2;P2;SDS_P1;SDS_P2;PMS_P1;PMS_P2;Temp;Humidity;BMP_temperature;BMP_pressure;BME280_temperature;BME280_humidity;BME280_pressure;Samples;Min_cycle;Max_cycle;Signal;HPM_P1;HPM_P2
2022/12/21 00:00:23;;;;;;;;;;;7.60;99.90;;;;;;4960670;28;20017;-64
2022/12/21 00:02:51;;;;;;;;;;;7.60;99.90;;;;;;4950516;29;20296;-64
2022/12/21 00:05:19;;;;;;;;;;;7.60;99.90;;;;;;4950628;29;20021;-64
2022/12/21 00:07:48;;;;;;;;;;;7.70;99.90;;;;;;4950625;29;19980;-65
2022/12/21 00:10:15;;;;;;;;;;;7.60;99.90;;;;;;4949763;29;20033;-64
2022/12/21 00:12:43;;;;;;;;;;;7.70;99.90;;;;;;4966161;28;20020;-64
2022/12/21 00:15:11;;;;;;;;;;;7.80;99.90;;;;;;4961456;28;19927;-64
2022/12/21 00:17:38;;;;;;;;;;;7.90;99.90;;;;;;4950845;28;19926;-64
2022/12/21 00:20:12;;;;;;;;;;;7.80;99.90;;;;;;4949814;29;20391;-64
2022/12/21 00:22:40;;;;;;;;;;;7.80;99.90;;;;;;4950365;29;20025;-64
2022/12/21 00:25:10;;;;;;;;;;;7.80;99.90;;;;;;4965306;28;19926;-65
2022/12/21 00:27:37;;;;;;;;;;;7.80;99.90;;;;;;4957362;28;20013;-65
2022/12/21 00:30:06;;;;;;;;;;;7.70;99.90;;;;;;4977264;23;19940;-60
2022/12/21 00:32:33;;;;;;;;;;;7.70;99.90;;;;;;4961411;28;19926;-61
2022/12/21 00:35:01;;;;;;;;;;;7.70;99.90;;;;;;4968619;28;20458;-61
2022/12/21 00:37:29;;;;;;;;;;;7.70;99.90;;;;;;4969639;28;19926;-61
2022/12/21 00:39:56;;;;;;;;;;;7.80;99.90;;;;;;4968650;28;19927;-61
2022/12/21 00:42:25;;;;;;;;;;;7.70;99.90;;;;;;4951012;28;19926;-61
2022/12/21 00:44:53;;;;;;;;;;;7.60;99.90;;;;;;4950008;29;20411;-60
2022/12/21 00:47:21;;;;;;;;;;;7.60;99.90;;;;;;4932952;29;19927;-61
2022/12/21 00:49:49;;;;;;;;;;;7.60;99.90;;;;;;4949446;29;19973;-61
2022/12/21 00:52:17;;;;;;;;;;;7.60;99.90;;;;;;4965925;28;20013;-61
2022/12/21 00:54:44;;;;;;;;;;;7.60;99.90;;;;;;4957049;28;19927;-63
2022/12/21 00:57:12;;;;;;;;;;;7.80;99.90;;;;;;4949327;29;20013;-60
2022/12/21 00:59:41;;;;;;;;;;;7.70;99.90;;;;;;4949369;29;20021;-61
2022/12/21 01:02:09;;;;;;;;;;;7.70;99.90;;;;;;4950893;28;19926;-61
2022/12/21 01:04:37;;;;;;;;;;;7.80;99.90;;;;;;4953127;28;19927;-61
2022/12/21 01:07:04;;;;;;;;;;;7.90;99.90;;;;;;4953058;29;19930;-61
2022/12/21 01:09:32;;;;;;;;;;;7.80;99.90;;;;;;4953276;28;20017;-61
2022/12/21 01:12:00;;;;;;;;;;;7.70;99.90;;;;;;4952093;29;19927;-61
2022/12/21 01:14:28;;;;;;;;;;;7.80;99.90;;;;;;4952805;29;19949;-61
2022/12/21 01:16:57;;;;;;;;;;;7.80;99.90;;;;;;4953058;29;20315;-61
2022/12/21 01:19:24;;;;;;;;;;;7.80;99.90;;;;;;4952804;29;19927;-61
2022/12/21 01:21:52;;;;;;;;;;;7.90;99.90;;;;;;4952326;29;19958;-61
2022/12/21 01:24:20;;;;;;;;;;;8.00;99.90;;;;;;4952795;28;19926;-61
2022/12/21 01:26:47;;;;;;;;;;;8.00;99.90;;;;;;4941179;29;20026;-61
2022/12/21 01:29:15;;;;;;;;;;;8.00;99.90;;;;;;4943228;29;20457;-61
2022/12/21 01:31:43;;;;;;;;;;;8.10;99.90;;;;;;4951996;29;20022;-61
2022/12/21 01:34:12;;;;;;;;;;;8.10;99.90;;;;;;4952563;29;19967;-60
2022/12/21 01:36:39;;;;;;;;;;;8.10;99.90;;;;;;4952637;29;19926;-61
2022/12/21 01:39:07;;;;;;;;;;;8.10;99.90;;;;;;4952843;29;19980;-61
2022/12/21 01:41:35;;;;;;;;;;;8.20;99.90;;;;;;4952285;28;19933;-60
2022/12/21 01:44:04;;;;;;;;;;;8.10;99.90;;;;;;4952376;29;19933;-60
2022/12/21 01:46:35;;;;;;;;;;;8.10;99.90;;;;;;4952519;29;19926;-61
2022/12/21 01:49:04;;;;;;;;;;;8.00;99.90;;;;;;4952613;29;20396;-61
2022/12/21 01:51:36;;;;;;;;;;;8.00;99.90;;;;;;4951834;29;20025;-60
2022/12/21 01:54:06;;;;;;;;;;;8.00;99.90;;;;;;4952359;29;19930;-60
2022/12/21 01:56:36;;;;;;;;;;;8.00;99.90;;;;;;4951991;29;19930;-61
2022/12/21 01:59:07;;;;;;;;;;;7.90;99.90;;;;;;4958250;28;19926;-61
2022/12/21 02:01:34;;;;;;;;;;;7.70;99.90;;;;;;4958619;28;19933;-62
2022/12/21 02:04:02;;;;;;;;;;;7.70;99.90;;;;;;4951964;29;19927;-61
2022/12/21 02:06:33;;;;;;;;;;;7.70;99.90;;;;;;4952478;28;19927;-60
2022/12/21 02:09:02;;;;;;;;;;;7.70;99.90;;;;;;4952019;29;20018;-60
2022/12/21 02:11:30;;;;;;;;;;;7.70;99.90;;;;;;4951137;29;20020;-60
2022/12/21 02:13:58;;;;;;;;;;;7.60;99.90;;;;;;4951933;29;20033;-60
2022/12/21 02:16:37;;;;;;;;;;;7.50;99.90;;;;;;4952377;28;19930;-60
2022/12/21 02:19:24;;;;;;;;;;;7.60;99.90;;;;;;4952158;28;19936;-59
2022/12/21 02:21:53;;;;;;;;;;;7.70;99.90;;;;;;4951357;29;19981;-60
2022/12/21 02:24:31;;;;;;;;;;;7.70;99.90;;;;;;4951552;29;19930;-60
2022/12/21 02:27:08;;;;;;;;;;;7.70;99.90;;;;;;4951725;29;19937;-60
2022/12/21 02:29:57;;;;;;;;;;;7.80;99.90;;;;;;4951031;29;19927;-59
2022/12/21 02:32:28;;;;;;;;;;;7.60;99.90;;;;;;4975217;28;19934;-60
2022/12/21 02:35:00;;;;;;;;;;;7.60;99.90;;;;;;4951498;28;19927;-60
2022/12/21 02:37:30;;;;;;;;;;;7.60;99.90;;;;;;4951818;29;19933;-60
2022/12/21 02:40:00;;;;;;;;;;;7.60;99.90;;;;;;4951062;29;19930;-60
2022/12/21 02:45:21;;;;;;;;;;;7.60;99.90;;;;;;4951560;29;19980;-60
2022/12/21 02:47:53;;;;;;;;;;;7.60;99.90;;;;;;4951564;29;19927;-60
2022/12/21 02:50:24;;;;;;;;;;;7.60;99.90;;;;;;4953422;28;19933;-60
2022/12/21 02:52:54;;;;;;;;;;;7.70;99.90;;;;;;4951634;29;19948;-60
2022/12/21 02:55:22;;;;;;;;;;;7.60;99.90;;;;;;4951000;29;20354;-60
2022/12/21 02:57:49;;;;;;;;;;;7.60;99.90;;;;;;4951142;29;20364;-60
2022/12/21 03:00:19;;;;;;;;;;;7.80;99.90;;;;;;4950900;29;20399;-60
2022/12/21 03:05:45;;;;;;;;;;;7.80;99.90;;;;;;4950324;29;19949;-61
2022/12/21 03:08:19;;;;;;;;;;;7.80;99.90;;;;;;4954380;28;19980;-61
2022/12/21 03:10:56;;;;;;;;;;;7.80;99.90;;;;;;4950527;29;19930;-61
2022/12/21 03:13:29;;;;;;;;;;;7.90;99.90;;;;;;4951422;29;19926;-61
2022/12/21 03:16:00;;;;;;;;;;;7.90;99.90;;;;;;4950812;29;19927;-61
2022/12/21 03:18:34;;;;;;;;;;;8.00;99.90;;;;;;4951201;29;19980;-61
2022/12/21 03:21:03;;;;;;;;;;;8.00;99.90;;;;;;4950648;29;20026;-62
2022/12/21 03:23:35;;;;;;;;;;;8.10;99.90;;;;;;4952723;28;19927;-61
2022/12/21 03:26:05;;;;;;;;;;;8.00;99.90;;;;;;4942989;28;19985;-61
2022/12/21 03:28:34;;;;;;;;;;;8.00;99.90;;;;;;4950932;29;19932;-61
2022/12/21 03:31:03;;;;;;;;;;;8.00;99.90;;;;;;4949985;29;19933;-61
2022/12/21 03:33:34;;;;;;;;;;;8.00;99.90;;;;;;4951017;29;19930;-62
2022/12/21 03:36:02;;;;;;;;;;;8.00;99.90;;;;;;4950836;29;19927;-62
2022/12/21 03:38:33;;;;;;;;;;;7.90;99.90;;;;;;4951013;29;20334;-62
2022/12/21 03:41:02;;;;;;;;;;;8.00;99.90;;;;;;4955278;28;19926;-62
2022/12/21 03:43:32;;;;;;;;;;;8.10;99.90;;;;;;4970036;28;19936;-62
2022/12/21 03:46:02;;;;;;;;;;;8.10;99.90;;;;;;4969877;28;19926;-62
2022/12/21 03:48:35;;;;;;;;;;;8.10;99.90;;;;;;4970021;28;20310;-61
2022/12/21 03:51:05;;;;;;;;;;;8.10;99.90;;;;;;4969367;28;19930;-61
2022/12/21 03:53:36;;;;;;;;;;;8.20;99.90;;;;;;4967666;28;20306;-61
2022/12/21 03:56:06;;;;;;;;;;;8.20;99.90;;;;;;4949918;29;20425;-61
2022/12/21 03:58:35;;;;;;;;;;;8.30;99.90;;;;;;4951167;28;20017;-61
2022/12/21 04:01:06;;;;;;;;;;;8.30;99.90;;;;;;4945060;29;19937;-62
2022/12/21 04:03:38;;;;;;;;;;;8.30;99.90;;;;;;4991549;28;19931;-61
2022/12/21 04:06:08;;;;;;;;;;;8.30;99.90;;;;;;4940152;29;20108;-61
2022/12/21 04:08:37;;;;;;;;;;;8.30;99.90;;;;;;4950634;29;19926;-61
2022/12/21 04:11:05;;;;;;;;;;;8.40;99.90;;;;;;4949801;29;20541;-61
2022/12/21 04:13:34;;;;;;;;;;;8.30;99.90;;;;;;4950370;29;19927;-62
2022/12/21 04:16:05;;;;;;;;;;;8.30;99.90;;;;;;4963797;28;20438;-61
2022/12/21 04:21:20;;;;;;;;;;;8.20;99.90;;;;;;4949799;29;19927;-61
2022/12/21 04:29:18;;;;;;;;;;;8.30;99.90;;;;;;4950366;29;20041;-62
2022/12/21 04:31:46;;;;;;;;;;;8.30;99.90;;;;;;4949344;28;19966;-61
2022/12/21 04:34:13;;;;;;;;;;;8.40;99.90;;;;;;4944843;29;19926;-62
2022/12/21 04:39:28;;;;;;;;;;;8.40;99.90;;;;;;4953702;29;20017;-62
2022/12/21 04:41:55;;;;;;;;;;;8.50;99.90;;;;;;4953324;29;19961;-61
2022/12/21 04:44:23;;;;;;;;;;;8.50;99.90;;;;;;4953620;29;19955;-61
2022/12/21 04:46:51;;;;;;;;;;;8.60;99.90;;;;;;4952862;29;19933;-61
2022/12/21 04:49:19;;;;;;;;;;;8.50;99.90;;;;;;4953981;28;19926;-61
2022/12/21 04:51:48;;;;;;;;;;;8.40;99.90;;;;;;4952749;29;19954;-61
2022/12/21 04:54:16;;;;;;;;;;;8.40;99.90;;;;;;4952574;29;20017;-62
2022/12/21 04:56:44;;;;;;;;;;;8.40;99.90;;;;;;4934092;29;19927;-61
2022/12/21 04:59:11;;;;;;;;;;;8.50;99.90;;;;;;4934116;28;19934;-61
2022/12/21 05:01:39;;;;;;;;;;;8.50;99.90;;;;;;4950426;29;19927;-61
2022/12/21 05:04:14;;;;;;;;;;;8.50;99.90;;;;;;4952846;28;20475;-61
2022/12/21 05:06:42;;;;;;;;;;;8.50;99.90;;;;;;4948851;28;20285;-62
2022/12/21 05:09:13;;;;;;;;;;;8.60;99.90;;;;;;4946803;29;20013;-62
2022/12/21 05:11:40;;;;;;;;;;;8.60;99.90;;;;;;4951971;29;20363;-62
2022/12/21 05:14:08;;;;;;;;;;;8.50;99.90;;;;;;4952562;29;19931;-61
2022/12/21 05:16:38;;;;;;;;;;;8.50;99.90;;;;;;4951862;28;19930;-61
2022/12/21 05:19:06;;;;;;;;;;;8.50;99.90;;;;;;4952117;29;19927;-62
2022/12/21 05:21:33;;;;;;;;;;;8.60;99.90;;;;;;4951016;29;19935;-62
2022/12/21 05:24:01;;;;;;;;;;;8.70;99.90;;;;;;4955962;28;20017;-61
2022/12/21 05:26:30;;;;;;;;;;;8.80;99.90;;;;;;4951728;29;19933;-61
2022/12/21 05:28:58;;;;;;;;;;;8.80;99.90;;;;;;4952571;29;19931;-62
2022/12/21 05:31:25;;;;;;;;;;;8.90;99.90;;;;;;4950473;29;19941;-62
2022/12/21 05:33:53;;;;;;;;;;;8.90;99.90;;;;;;4951845;29;20072;-61
2022/12/21 05:36:21;;;;;;;;;;;8.90;99.90;;;;;;4952682;29;20391;-61
2022/12/21 05:38:48;;;;;;;;;;;8.90;99.90;;;;;;4951988;29;19931;-61
2022/12/21 05:41:17;;;;;;;;;;;8.90;99.90;;;;;;4946053;28;19941;-62
2022/12/21 05:43:46;;;;;;;;;;;8.90;99.90;;;;;;4949055;29;19933;-62
2022/12/21 05:46:14;;;;;;;;;;;9.00;99.90;;;;;;4951995;29;19973;-62
2022/12/21 05:48:53;;;;;;;;;;;9.00;99.90;;;;;;4948483;28;20311;-62
2022/12/21 05:51:21;;;;;;;;;;;9.00;99.90;;;;;;4938711;28;19983;-62
2022/12/21 05:53:49;;;;;;;;;;;9.10;99.90;;;;;;4947128;28;19963;-61
2022/12/21 05:56:16;;;;;;;;;;;9.10;99.90;;;;;;4945984;28;19957;-62
2022/12/21 05:58:45;;;;;;;;;;;9.10;99.90;;;;;;4949420;28;19956;-61
2022/12/21 06:01:14;;;;;;;;;;;9.20;99.90;;;;;;4946317;28;19961;-61
2022/12/21 06:03:41;;;;;;;;;;;9.20;99.90;;;;;;4949307;28;20051;-61
2022/12/21 06:06:10;;;;;;;;;;;9.20;99.90;;;;;;4940297;28;19966;-62
2022/12/21 06:08:38;;;;;;;;;;;9.20;99.90;;;;;;4950530;28;19972;-62
2022/12/21 06:11:07;;;;;;;;;;;9.10;99.90;;;;;;4946996;28;20013;-61
2022/12/21 06:13:35;;;;;;;;;;;9.10;99.90;;;;;;4947111;28;19932;-62
2022/12/21 06:16:05;;;;;;;;;;;8.90;99.90;;;;;;4944222;28;20022;-62
2022/12/21 06:18:33;;;;;;;;;;;8.90;99.90;;;;;;4945626;28;19934;-61
2022/12/21 06:21:01;;;;;;;;;;;8.90;99.90;;;;;;4946319;28;19937;-61
2022/12/21 06:23:29;;;;;;;;;;;9.00;99.90;;;;;;4946302;28;20029;-61
2022/12/21 06:25:57;;;;;;;;;;;8.90;99.90;;;;;;4945058;28;20013;-61
2022/12/21 06:28:25;;;;;;;;;;;8.90;99.90;;;;;;4942215;28;19927;-61
2022/12/21 06:30:52;;;;;;;;;;;8.90;99.90;;;;;;4948895;28;20380;-62
2022/12/21 06:33:22;;;;;;;;;;;8.80;99.90;;;;;;4951168;28;19931;-61
2022/12/21 06:35:54;;;;;;;;;;;8.70;99.90;;;;;;4946861;28;19935;-63
2022/12/21 06:38:22;;;;;;;;;;;8.70;99.90;;;;;;4947953;28;19962;-61
2022/12/21 06:40:53;;;;;;;;;;;8.70;99.90;;;;;;4948643;28;20012;-62
2022/12/21 06:43:20;;;;;;;;;;;8.70;99.90;;;;;;4946839;28;20020;-61
2022/12/21 06:45:55;;;;;;;;;;;8.70;99.90;;;;;;4935129;28;19926;-62
2022/12/21 06:48:25;;;;;;;;;;;8.70;99.90;;;;;;4947753;28;19980;-62
2022/12/21 06:50:53;;;;;;;;;;;8.70;99.90;;;;;;4944120;28;20319;-61
2022/12/21 06:53:21;;;;;;;;;;;8.60;99.90;;;;;;4941845;28;20304;-62
2022/12/21 06:55:48;;;;;;;;;;;8.60;99.90;;;;;;4946753;28;19940;-63
2022/12/21 06:58:16;;;;;;;;;;;8.50;99.90;;;;;;4945305;28;20323;-63
2022/12/21 07:00:44;;;;;;;;;;;8.50;99.90;;;;;;4945815;28;20411;-63
2022/12/21 07:03:12;;;;;;;;;;;8.40;99.90;;;;;;4948653;28;20272;-62
2022/12/21 07:05:40;;;;;;;;;;;8.40;99.90;;;;;;4944159;28;20002;-63
2022/12/21 07:08:07;;;;;;;;;;;8.40;99.90;;;;;;4941573;28;19930;-62
2022/12/21 07:10:38;;;;;;;;;;;8.30;99.90;;;;;;4944814;28;19933;-63
2022/12/21 07:13:09;;;;;;;;;;;8.30;99.90;;;;;;4938489;28;20448;-62
2022/12/21 07:15:37;;;;;;;;;;;8.30;99.90;;;;;;4942045;28;19926;-62
2022/12/21 07:18:05;;;;;;;;;;;8.40;99.90;;;;;;4945924;28;20029;-63
2022/12/21 07:20:33;;;;;;;;;;;8.40;99.90;;;;;;4939182;28;19934;-63
2022/12/21 07:23:02;;;;;;;;;;;8.40;99.90;;;;;;4942212;29;19930;-63
2022/12/21 07:25:29;;;;;;;;;;;8.40;99.90;;;;;;4949427;29;19958;-63
2022/12/21 07:27:57;;;;;;;;;;;8.40;99.90;;;;;;4950341;29;19933;-63
2022/12/21 07:30:25;;;;;;;;;;;8.40;99.90;;;;;;4949919;29;19941;-63
2022/12/21 07:32:54;;;;;;;;;;;8.40;99.90;;;;;;4950992;29;19926;-62
2022/12/21 07:35:22;;;;;;;;;;;8.40;99.90;;;;;;4951245;28;20385;-63
2022/12/21 07:37:50;;;;;;;;;;;8.40;99.90;;;;;;4950868;29;20142;-62
2022/12/21 07:40:19;;;;;;;;;;;8.40;99.90;;;;;;4950060;28;19933;-63
2022/12/21 07:42:47;;;;;;;;;;;8.40;99.90;;;;;;4950933;29;19930;-63
2022/12/21 07:45:15;;;;;;;;;;;8.40;99.90;;;;;;4950976;29;20445;-63
2022/12/21 07:47:43;;;;;;;;;;;8.30;99.90;;;;;;4950539;29;19980;-62
2022/12/21 07:50:11;;;;;;;;;;;8.30;99.90;;;;;;4950194;29;20025;-62
2022/12/21 07:52:39;;;;;;;;;;;8.30;99.90;;;;;;4951070;28;19940;-62
2022/12/21 07:55:07;;;;;;;;;;;8.40;99.90;;;;;;4950515;29;19930;-62
2022/12/21 07:57:36;;;;;;;;;;;8.30;99.90;;;;;;4950520;29;20013;-63
2022/12/21 08:00:05;;;;;;;;;;;8.30;99.90;;;;;;4949771;29;19927;-62
2022/12/21 08:02:33;;;;;;;;;;;8.30;99.90;;;;;;4950269;29;19934;-62
2022/12/21 08:05:01;;;;;;;;;;;8.30;99.90;;;;;;4950676;29;19937;-63
2022/12/21 08:07:28;;;;;;;;;;;8.40;99.90;;;;;;4950382;29;19933;-63
2022/12/21 08:09:56;;;;;;;;;;;8.40;99.90;;;;;;4949279;28;19970;-62
2022/12/21 08:12:24;;;;;;;;;;;8.40;99.90;;;;;;4953341;28;19949;-62
2022/12/21 08:14:53;;;;;;;;;;;8.40;99.90;;;;;;4954285;29;19931;-62
2022/12/21 08:17:21;;;;;;;;;;;8.40;99.90;;;;;;4953607;29;20025;-62
2022/12/21 08:19:50;;;;;;;;;;;8.40;99.90;;;;;;4952973;29;20412;-62
2022/12/21 08:22:18;;;;;;;;;;;8.50;99.90;;;;;;4953886;29;20037;-62
2022/12/21 08:24:45;;;;;;;;;;;8.50;99.90;;;;;;4954065;28;20025;-62
2022/12/21 08:27:14;;;;;;;;;;;8.40;99.90;;;;;;4953985;28;20025;-62
2022/12/21 08:29:41;;;;;;;;;;;8.50;99.90;;;;;;4952557;29;19930;-62
2022/12/21 08:32:10;;;;;;;;;;;8.40;99.90;;;;;;4953607;29;19928;-63
2022/12/21 08:34:38;;;;;;;;;;;8.40;99.90;;;;;;4934428;29;19927;-63
2022/12/21 08:37:06;;;;;;;;;;;8.50;99.90;;;;;;4934478;29;19949;-64
2022/12/21 08:39:34;;;;;;;;;;;8.40;99.90;;;;;;4934568;29;19933;-63
2022/12/21 08:42:01;;;;;;;;;;;8.50;99.90;;;;;;4953566;28;19931;-63
2022/12/21 08:44:29;;;;;;;;;;;8.50;99.90;;;;;;4953521;29;19933;-62
2022/12/21 08:46:57;;;;;;;;;;;8.50;99.90;;;;;;4953232;29;20020;-63
2022/12/21 08:49:26;;;;;;;;;;;8.50;99.90;;;;;;4953338;29;19950;-62
2022/12/21 08:51:53;;;;;;;;;;;8.50;99.90;;;;;;4952862;29;20033;-63
2022/12/21 08:54:21;;;;;;;;;;;8.50;99.90;;;;;;4953418;29;20414;-63
2022/12/21 08:56:48;;;;;;;;;;;8.50;99.90;;;;;;4953579;28;19927;-63
2022/12/21 08:59:16;;;;;;;;;;;8.60;99.90;;;;;;4953495;28;19927;-63
2022/12/21 09:01:44;;;;;;;;;;;8.60;99.90;;;;;;4952120;29;19926;-63
2022/12/21 09:04:12;;;;;;;;;;;8.60;99.90;;;;;;4953168;29;19934;-63
2022/12/21 09:06:41;;;;;;;;;;;8.60;99.90;;;;;;4953210;28;20017;-63
2022/12/21 09:09:09;;;;;;;;;;;8.70;99.90;;;;;;4953062;29;19927;-62
2022/12/21 09:11:37;;;;;;;;;;;8.70;99.90;;;;;;4952206;29;19927;-63
2022/12/21 09:14:20;;;;;;;;;;;8.70;99.90;;;;;;4952985;29;19933;-63
2022/12/21 09:16:48;;;;;;;;;;;8.70;99.90;;;;;;4952969;29;19932;-62
2022/12/21 09:19:16;;;;;;;;;;;8.80;99.90;;;;;;4952706;29;19927;-62
2022/12/21 09:21:45;;;;;;;;;;;8.70;99.90;;;;;;4952160;29;20284;-63
2022/12/21 09:24:12;;;;;;;;;;;8.80;99.90;;;;;;4952043;29;19933;-63
2022/12/21 09:26:41;;;;;;;;;;;8.80;99.90;;;;;;4952759;29;20009;-62
2022/12/21 09:29:09;;;;;;;;;;;8.80;99.90;;;;;;4953036;28;20456;-62
2022/12/21 09:31:37;;;;;;;;;;;8.80;99.90;;;;;;4951589;29;19958;-63
2022/12/21 09:34:04;;;;;;;;;;;8.80;99.90;;;;;;4952674;29;20025;-63
2022/12/21 09:36:33;;;;;;;;;;;8.80;99.90;;;;;;4952785;29;20311;-62
2022/12/21 09:39:22;;;;;;;;;;;8.80;99.90;;;;;;4952538;28;19937;-63
2022/12/21 09:41:56;;;;;;;;;;;8.80;99.90;;;;;;4951873;29;19927;-63
2022/12/21 09:44:33;;;;;;;;;;;8.80;99.90;;;;;;4952658;29;20026;-62
2022/12/21 09:47:03;;;;;;;;;;;8.90;99.90;;;;;;4952937;28;20049;-62
2022/12/21 09:49:35;;;;;;;;;;;8.90;99.90;;;;;;4951816;29;20474;-62
2022/12/21 09:52:05;;;;;;;;;;;8.90;99.90;;;;;;4952488;29;19938;-63
2022/12/21 09:54:36;;;;;;;;;;;8.90;99.90;;;;;;4952581;29;19977;-62
2022/12/21 09:57:04;;;;;;;;;;;9.00;99.90;;;;;;4952455;29;19927;-63
2022/12/21 09:59:32;;;;;;;;;;;9.00;99.90;;;;;;4951697;29;20034;-62
2022/12/21 10:02:04;;;;;;;;;;;9.00;99.90;;;;;;4949611;28;19989;-63
2022/12/21 10:04:41;;;;;;;;;;;9.00;99.90;;;;;;4949524;29;19927;-63
2022/12/21 10:07:39;;;;;;;;;;;9.00;99.90;;;;;;4951026;29;19934;-63
2022/12/21 10:10:15;;;;;;;;;;;9.00;99.90;;;;;;4951646;29;19962;-62
2022/12/21 10:12:45;;;;;;;;;;;9.00;99.90;;;;;;4952324;29;20370;-63
2022/12/21 10:15:18;;;;;;;;;;;9.10;99.90;;;;;;4952490;29;19926;-63
2022/12/21 10:17:51;;;;;;;;;;;9.10;99.90;;;;;;4952397;28;20013;-64
2022/12/21 10:20:36;;;;;;;;;;;9.20;99.90;;;;;;4951241;29;19930;-63
2022/12/21 10:23:05;;;;;;;;;;;9.20;99.90;;;;;;4952168;28;20033;-63
2022/12/21 10:25:39;;;;;;;;;;;9.30;99.90;;;;;;4952060;29;20400;-63
2022/12/21 10:28:13;;;;;;;;;;;9.40;99.90;;;;;;4951924;29;19933;-63
2022/12/21 10:30:43;;;;;;;;;;;9.50;99.90;;;;;;4950837;29;19933;-63
2022/12/21 10:33:12;;;;;;;;;;;9.70;99.90;;;;;;4952073;28;19953;-63
2022/12/21 10:35:40;;;;;;;;;;;9.80;99.90;;;;;;4952290;28;20013;-63
2022/12/21 10:38:12;;;;;;;;;;;9.80;99.90;;;;;;4951457;29;20375;-64
2022/12/21 10:40:42;;;;;;;;;;;9.90;99.90;;;;;;4951164;29;19926;-63
2022/12/21 10:43:10;;;;;;;;;;;9.90;99.90;;;;;;4951907;29;20391;-61
2022/12/21 10:45:39;;;;;;;;;;;9.80;99.90;;;;;;4951778;29;20028;-63
2022/12/21 10:48:07;;;;;;;;;;;9.80;99.90;;;;;;4951587;29;19927;-63
2022/12/21 10:50:40;;;;;;;;;;;9.80;99.90;;;;;;4950499;29;20434;-63
2022/12/21 10:53:18;;;;;;;;;;;9.80;99.90;;;;;;4951891;29;20395;-63
2022/12/21 10:55:48;;;;;;;;;;;9.90;99.90;;;;;;4951715;29;19933;-63
2022/12/21 10:58:18;;;;;;;;;;;10.00;99.90;;;;;;4951556;29;20297;-63
2022/12/21 11:00:51;;;;;;;;;;;10.10;99.90;;;;;;4950355;29;19980;-63
2022/12/21 11:03:23;;;;;;;;;;;10.10;99.90;;;;;;4951400;29;19927;-63
2022/12/21 11:05:51;;;;;;;;;;;10.10;99.90;;;;;;4951686;28;20030;-63
2022/12/21 11:08:29;;;;;;;;;;;10.00;99.90;;;;;;4951496;28;19948;-62
2022/12/21 11:11:00;;;;;;;;;;;10.00;99.90;;;;;;4950685;29;19973;-63
2022/12/21 11:13:29;;;;;;;;;;;10.00;99.90;;;;;;4951243;28;20034;-62
2022/12/21 11:16:00;;;;;;;;;;;9.90;99.90;;;;;;4951222;29;20383;-63
2022/12/21 11:18:34;;;;;;;;;;;9.80;99.90;;;;;;4951307;29;20021;-64
2022/12/21 11:21:02;;;;;;;;;;;9.80;99.90;;;;;;4950376;29;19926;-63
2022/12/21 11:23:30;;;;;;;;;;;9.80;99.90;;;;;;4951686;28;19934;-63
2022/12/21 11:25:59;;;;;;;;;;;9.80;99.90;;;;;;4951362;29;20294;-63
2022/12/21 11:28:27;;;;;;;;;;;9.80;99.90;;;;;;4951237;29;19926;-63
2022/12/21 11:30:56;;;;;;;;;;;9.90;99.90;;;;;;4949759;29;19931;-63
2022/12/21 11:33:24;;;;;;;;;;;9.90;99.90;;;;;;4950941;29;19972;-63
2022/12/21 11:36:08;;;;;;;;;;;10.00;99.90;;;;;;4951161;29;19927;-63
2022/12/21 11:38:37;;;;;;;;;;;10.00;99.90;;;;;;4951158;28;20389;-63
2022/12/21 11:41:11;;;;;;;;;;;10.10;99.90;;;;;;4950253;29;19930;-63
2022/12/21 11:43:45;;;;;;;;;;;10.20;99.90;;;;;;4951193;29;19926;-63
2022/12/21 11:46:18;;;;;;;;;;;10.60;99.90;;;;;;4950226;29;20041;-62
2022/12/21 11:49:20;;;;;;;;;;;10.80;99.90;;;;;;4950756;29;19938;-63
2022/12/21 11:51:53;;;;;;;;;;;10.80;99.90;;;;;;4950376;29;20312;-63
2022/12/21 11:54:29;;;;;;;;;;;10.90;99.90;;;;;;4951025;29;19927;-63
2022/12/21 11:57:06;;;;;;;;;;;11.10;99.90;;;;;;4950516;29;20451;-62
2022/12/21 11:59:39;;;;;;;;;;;11.10;99.90;;;;;;4950198;28;20659;-63
2022/12/21 12:02:20;;;;;;;;;;;11.10;99.90;;;;;;4950509;29;19981;-63
2022/12/21 12:04:54;;;;;;;;;;;11.00;99.90;;;;;;4931689;29;19928;-62
2022/12/21 12:07:29;;;;;;;;;;;11.00;99.90;;;;;;4931660;29;20346;-63
2022/12/21 12:10:04;;;;;;;;;;;10.90;99.90;;;;;;4930779;29;20014;-63
2022/12/21 12:12:38;;;;;;;;;;;10.70;99.90;;;;;;4944610;29;19926;-63
2022/12/21 12:15:12;;;;;;;;;;;10.80;99.90;;;;;;4950512;29;20029;-63
2022/12/21 12:17:46;;;;;;;;;;;10.80;99.90;;;;;;4950364;29;20382;-64
2022/12/21 12:20:22;;;;;;;;;;;10.70;99.90;;;;;;4949570;28;19977;-63
2022/12/21 12:22:56;;;;;;;;;;;10.70;99.90;;;;;;4950445;29;19926;-63
2022/12/21 12:25:30;;;;;;;;;;;10.60;99.90;;;;;;4950530;29;20455;-63
2022/12/21 12:28:26;;;;;;;;;;;10.70;99.90;;;;;;4950881;28;19973;-63
2022/12/21 12:30:58;;;;;;;;;;;10.70;99.90;;;;;;4958308;23;20033;-63
2022/12/21 12:33:35;;;;;;;;;;;10.70;99.90;;;;;;4950271;28;19934;-63
2022/12/21 12:36:06;;;;;;;;;;;10.70;99.90;;;;;;4950442;28;19930;-63
2022/12/21 12:38:37;;;;;;;;;;;10.70;99.90;;;;;;4950095;28;19962;-63
2022/12/21 12:41:21;;;;;;;;;;;10.80;99.90;;;;;;4949424;29;20032;-65
2022/12/21 12:43:55;;;;;;;;;;;11.00;99.90;;;;;;4955405;28;20025;-65
2022/12/21 12:46:28;;;;;;;;;;;11.20;99.90;;;;;;4969451;28;19952;-65
2022/12/21 12:49:02;;;;;;;;;;;11.40;99.90;;;;;;4969354;28;19926;-66
2022/12/21 12:51:35;;;;;;;;;;;11.60;99.90;;;;;;4968816;28;19971;-65
2022/12/21 12:54:06;;;;;;;;;;;11.80;99.90;;;;;;4969524;28;19930;-65
2022/12/21 12:56:40;;;;;;;;;;;12.00;99.90;;;;;;4969572;28;19965;-65
2022/12/21 12:59:12;;;;;;;;;;;12.10;99.90;;;;;;4971061;28;19976;-66
2022/12/21 13:01:44;;;;;;;;;;;12.20;99.90;;;;;;4967867;28;19927;-65
2022/12/21 13:04:24;;;;;;;;;;;12.20;99.90;;;;;;4969265;28;19930;-65
2022/12/21 13:06:55;;;;;;;;;;;12.10;99.90;;;;;;4972800;28;20033;-65
2022/12/21 13:09:34;;;;;;;;;;;12.00;99.90;;;;;;4972569;28;20032;-65
2022/12/21 13:12:06;;;;;;;;;;;11.90;99.90;;;;;;4972493;28;20040;-65
2022/12/21 13:14:40;;;;;;;;;;;11.80;99.90;;;;;;4972155;28;19951;-65
2022/12/21 13:17:13;;;;;;;;;;;11.80;99.90;;;;;;4972440;28;20013;-65
2022/12/21 13:19:42;;;;;;;;;;;11.80;99.90;;;;;;4972022;28;19927;-65
2022/12/21 13:22:17;;;;;;;;;;;11.70;99.90;;;;;;4972222;28;19926;-65
2022/12/21 13:24:47;;;;;;;;;;;11.70;99.90;;;;;;4972636;28;20306;-65
2022/12/21 13:27:17;;;;;;;;;;;11.70;99.90;;;;;;4972281;28;19926;-66
2022/12/21 13:29:53;;;;;;;;;;;11.80;99.90;;;;;;4971133;28;20382;-65
2022/12/21 13:32:23;;;;;;;;;;;11.80;99.90;;;;;;4963696;28;19938;-65
2022/12/21 13:35:06;;;;;;;;;;;11.80;99.90;;;;;;4972228;28;19926;-65
2022/12/21 13:37:36;;;;;;;;;;;11.70;99.90;;;;;;4972134;28;20036;-65
2022/12/21 13:40:07;;;;;;;;;;;11.70;99.90;;;;;;4971302;28;19930;-66
2022/12/21 13:42:37;;;;;;;;;;;11.60;99.90;;;;;;4968192;28;19927;-65
2022/12/21 13:45:12;;;;;;;;;;;11.50;99.90;;;;;;4952498;29;19927;-65
2022/12/21 13:47:40;;;;;;;;;;;11.40;99.90;;;;;;4952546;29;19993;-65
2022/12/21 13:50:19;;;;;;;;;;;11.40;99.90;;;;;;4951835;29;19941;-65
2022/12/21 13:52:50;;;;;;;;;;;11.40;99.90;;;;;;4971705;28;20013;-65
2022/12/21 13:55:30;;;;;;;;;;;11.50;99.90;;;;;;4971818;28;19926;-65
2022/12/21 13:58:03;;;;;;;;;;;11.30;99.90;;;;;;4972223;28;19977;-65
2022/12/21 14:00:37;;;;;;;;;;;11.30;99.90;;;;;;4970442;28;19969;-65
2022/12/21 14:03:19;;;;;;;;;;;11.30;99.90;;;;;;4963328;28;19926;-65
2022/12/21 14:05:51;;;;;;;;;;;11.20;99.90;;;;;;4952641;28;19926;-65
2022/12/21 14:08:29;;;;;;;;;;;11.20;99.90;;;;;;4952409;28;20017;-65
2022/12/21 14:11:09;;;;;;;;;;;11.10;99.90;;;;;;4951400;28;19933;-65
2022/12/21 14:13:47;;;;;;;;;;;11.10;99.90;;;;;;4952257;29;19977;-65
2022/12/21 14:16:17;;;;;;;;;;;11.10;99.90;;;;;;4960439;28;19926;-65
2022/12/21 14:18:45;;;;;;;;;;;11.10;99.90;;;;;;4971011;28;19926;-65
2022/12/21 14:21:20;;;;;;;;;;;11.10;99.90;;;;;;4970568;28;19976;-65
2022/12/21 14:23:49;;;;;;;;;;;11.00;99.90;;;;;;4971274;28;19930;-65
2022/12/21 14:26:34;;;;;;;;;;;10.90;99.90;;;;;;4971349;28;19930;-65
2022/12/21 14:29:04;;;;;;;;;;;11.00;99.90;;;;;;4971099;28;19936;-65
2022/12/21 14:31:33;;;;;;;;;;;11.00;99.90;;;;;;4967113;28;20060;-65
2022/12/21 14:34:08;;;;;;;;;;;11.00;99.90;;;;;;4966364;28;19930;-65
2022/12/21 14:37:29;;;;;;;;;;;10.90;99.90;;;;;;4970863;28;19926;-65
2022/12/21 14:40:18;;;;;;;;;;;10.90;99.90;;;;;;4970294;28;20017;-66
2022/12/21 14:42:50;;;;;;;;;;;10.80;99.90;;;;;;4971162;28;19966;-65
2022/12/21 14:45:19;;;;;;;;;;;10.80;99.90;;;;;;4971039;28;19926;-65
2022/12/21 14:48:00;;;;;;;;;;;10.70;99.90;;;;;;4970914;28;19957;-65
2022/12/21 14:50:46;;;;;;;;;;;10.70;99.90;;;;;;4969980;28;20413;-65
2022/12/21 14:53:30;;;;;;;;;;;10.70;99.90;;;;;;4969465;28;20024;-65
2022/12/21 14:56:01;;;;;;;;;;;10.60;99.90;;;;;;4970912;28;19927;-65
2022/12/21 14:58:32;;;;;;;;;;;10.60;99.90;;;;;;4970955;28;20454;-65
2022/12/21 15:01:30;;;;;;;;;;;10.50;99.90;;;;;;4969882;28;19926;-65
2022/12/21 15:04:01;;;;;;;;;;;10.50;99.90;;;;;;4965773;28;19933;-65